createdAt,value
2023-07-17T00:00:59.995Z,9.05
2023-07-17T00:03:23.328Z,7.05
2023-07-17T00:05:46.843Z,10.07
2023-07-17T00:08:12.359Z,7.13
2023-07-17T00:10:38.382Z,9.35
2023-07-17T00:13:01.583Z,10.98
2023-07-17T00:15:25.094Z,7.72
2023-07-17T00:17:48.371Z,6.78
2023-07-17T00:20:13.714Z,6.35
2023-07-17T00:22:37.063Z,13.38
2023-07-17T00:25:00.268Z,11.10
2023-07-17T00:27:25.251Z,9.23
2023-07-17T00:29:48.827Z,9.40
2023-07-17T00:32:12.969Z,10.70
2023-07-17T00:34:36.643Z,7.53
2023-07-17T00:36:59.854Z,7.57
2023-07-17T00:39:24.717Z,8.10
2023-07-17T00:41:48.589Z,5.25
2023-07-17T00:44:13.197Z,6.18
2023-07-17T00:46:37.002Z,9.18
2023-07-17T00:49:02.588Z,8.30
2023-07-17T00:51:26.864Z,8.05
2023-07-17T00:53:50.178Z,7.60
2023-07-17T00:56:13.956Z,8.13
2023-07-17T00:58:37.774Z,6.75
2023-07-17T01:01:04.232Z,7.60
2023-07-17T01:03:27.717Z,6.18
2023-07-17T01:05:51.497Z,6.20
2023-07-17T01:08:14.758Z,7.00
2023-07-17T01:10:37.983Z,8.13
2023-07-17T01:13:01.556Z,7.70
2023-07-17T01:15:24.886Z,6.57
2023-07-17T01:17:49.506Z,9.45
2023-07-17T01:20:13.498Z,8.20
2023-07-17T01:22:54.860Z,6.40
2023-07-17T01:25:18.312Z,5.47
2023-07-17T01:27:41.519Z,10.00
2023-07-17T01:30:06.245Z,5.13
2023-07-17T01:32:30.319Z,6.20
2023-07-17T01:34:53.828Z,8.07
2023-07-17T01:37:17.389Z,6.25
2023-07-17T01:39:42.202Z,5.43
2023-07-17T01:42:06.128Z,7.97
2023-07-17T01:44:31.286Z,5.88
2023-07-17T01:46:54.643Z,5.80
2023-07-17T01:49:17.857Z,7.78
2023-07-17T01:51:41.017Z,7.97
2023-07-17T01:54:04.284Z,7.35
2023-07-17T01:56:31.126Z,4.80
2023-07-17T01:58:54.332Z,7.05
2023-07-17T02:01:17.781Z,6.75
2023-07-17T02:03:41.273Z,6.45
2023-07-17T02:06:04.877Z,7.72
2023-07-17T02:08:28.080Z,7.57
2023-07-17T02:10:54.094Z,6.18
2023-07-17T02:13:18.635Z,6.60
2023-07-17T02:15:42.127Z,7.80
2023-07-17T02:18:05.526Z,8.43
2023-07-17T02:20:29.152Z,7.30
2023-07-17T02:22:52.579Z,6.20
2023-07-17T02:25:15.829Z,7.53
2023-07-17T02:27:39.385Z,7.28
2023-07-17T02:30:04.836Z,7.28
2023-07-17T02:32:29.185Z,4.93
2023-07-17T02:34:55.877Z,5.80
2023-07-17T02:37:19.086Z,7.75
2023-07-17T02:39:42.253Z,6.55
2023-07-17T02:42:06.463Z,7.55
2023-07-17T02:44:29.657Z,5.15
2023-07-17T02:46:54.233Z,7.82
2023-07-17T02:49:17.478Z,8.10
2023-07-17T02:51:40.651Z,7.18
2023-07-17T02:54:04.946Z,6.20
2023-07-17T02:56:28.305Z,5.75
2023-07-17T02:58:55.872Z,7.80
2023-07-17T03:01:19.210Z,4.22
2023-07-17T03:03:43.869Z,5.20
2023-07-17T03:06:07.588Z,4.18
2023-07-17T03:08:30.711Z,8.40
2023-07-17T03:10:53.920Z,6.20
2023-07-17T03:13:17.524Z,6.20
2023-07-17T03:15:40.810Z,5.75
2023-07-17T03:18:04.516Z,6.80
2023-07-17T03:20:30.258Z,8.13
2023-07-17T03:22:53.615Z,5.78
2023-07-17T03:25:16.869Z,5.80
2023-07-17T03:27:40.101Z,6.47
2023-07-17T03:30:05.284Z,6.13
2023-07-17T03:32:28.793Z,8.02
2023-07-17T03:34:51.955Z,6.65
2023-07-17T03:37:16.573Z,5.38
2023-07-17T03:39:39.885Z,6.50
2023-07-17T03:42:05.325Z,9.75
2023-07-17T03:44:28.509Z,6.15
2023-07-17T03:46:51.865Z,6.75
2023-07-17T03:49:16.848Z,6.07
2023-07-17T03:51:40.176Z,6.80
2023-07-17T03:54:06.825Z,7.03
2023-07-17T03:56:30.408Z,5.25
2023-07-17T03:58:53.973Z,8.43
2023-07-17T04:01:18.137Z,7.25
2023-07-17T04:03:44.273Z,5.72
2023-07-17T04:06:07.923Z,8.32
2023-07-17T04:08:31.133Z,6.50
2023-07-17T04:10:55.675Z,9.80
2023-07-17T04:13:19.062Z,5.93
2023-07-17T04:15:43.289Z,8.60
2023-07-17T04:18:10.760Z,9.52
2023-07-17T04:20:34.180Z,5.75
2023-07-17T04:22:57.454Z,9.77
2023-07-17T04:25:21.060Z,7.55
2023-07-17T04:27:45.102Z,5.78
2023-07-17T04:30:10.799Z,7.00
2023-07-17T04:32:34.066Z,8.02
2023-07-17T04:34:58.744Z,7.90
2023-07-17T04:37:22.238Z,7.18
2023-07-17T04:39:46.236Z,7.15
2023-07-17T04:42:10.239Z,7.90
2023-07-17T04:44:34.868Z,9.20
2023-07-17T04:46:59.667Z,7.28
2023-07-17T04:49:22.926Z,8.32
2023-07-17T04:51:46.387Z,7.13
2023-07-17T04:54:09.567Z,7.57
2023-07-17T04:56:33.062Z,7.70
2023-07-17T04:59:00.236Z,11.25
2023-07-17T05:01:26.229Z,6.38
2023-07-17T05:03:49.555Z,6.88
2023-07-17T05:06:12.842Z,8.70
2023-07-17T05:08:36.009Z,7.47
2023-07-17T05:11:00.646Z,8.02
2023-07-17T05:13:30.159Z,9.25
2023-07-17T05:15:55.691Z,6.43
2023-07-17T05:18:21.330Z,9.90
2023-07-17T05:20:46.513Z,12.30
2023-07-17T05:23:10.058Z,7.22
2023-07-17T05:25:33.375Z,11.65
2023-07-17T05:27:57.690Z,10.00
2023-07-17T05:30:21.016Z,7.22
2023-07-17T05:32:45.064Z,8.80
2023-07-17T05:35:10.885Z,6.18
2023-07-17T05:37:34.578Z,8.68
2023-07-17T05:39:59.916Z,10.43
2023-07-17T05:42:23.197Z,9.80
2023-07-17T05:44:46.402Z,9.35
2023-07-17T05:47:11.411Z,8.98
2023-07-17T05:49:34.613Z,10.80
2023-07-17T05:52:00.670Z,11.00
2023-07-17T05:54:23.965Z,8.65
2023-07-17T05:56:47.302Z,9.88
2023-07-17T05:59:10.632Z,8.68
2023-07-17T06:01:34.529Z,6.97
2023-07-17T06:04:04.326Z,14.00
2023-07-17T06:06:27.656Z,9.57
2023-07-17T06:08:52.170Z,9.93
2023-07-17T06:11:16.123Z,12.45
2023-07-17T06:13:39.475Z,14.85
2023-07-17T06:16:02.639Z,11.43
2023-07-17T06:18:25.957Z,10.07
2023-07-17T06:20:49.120Z,8.80
2023-07-17T06:23:12.362Z,11.18
2023-07-17T06:25:39.855Z,12.70
2023-07-17T06:28:03.208Z,10.38
2023-07-17T06:30:26.615Z,7.93
2023-07-17T06:32:49.817Z,14.48
2023-07-17T06:35:13.009Z,8.63
2023-07-17T06:37:36.353Z,11.02
2023-07-17T06:39:59.689Z,10.02
2023-07-17T06:42:24.470Z,11.38
2023-07-17T06:44:48.137Z,8.60
2023-07-17T06:47:17.452Z,9.23
2023-07-17T06:49:48.705Z,9.77
2023-07-17T06:52:12.024Z,10.15
2023-07-17T06:54:48.182Z,7.97
2023-07-17T06:57:18.388Z,10.52
2023-07-17T06:59:42.893Z,6.85
2023-07-17T07:02:06.698Z,12.70
2023-07-17T07:04:29.888Z,12.18
2023-07-17T07:06:53.126Z,11.57
2023-07-17T07:09:16.293Z,15.05
2023-07-17T07:11:39.563Z,8.70
2023-07-17T07:14:02.702Z,12.95
2023-07-17T07:16:27.387Z,10.80
2023-07-17T07:18:50.582Z,8.95
2023-07-17T07:21:13.839Z,9.95
2023-07-17T07:23:37.088Z,11.85
2023-07-17T07:26:00.267Z,9.85
2023-07-17T07:28:23.535Z,12.30
2023-07-17T07:30:46.786Z,11.77
2023-07-17T07:33:11.390Z,12.23
2023-07-17T07:35:34.664Z,14.27
2023-07-17T07:37:58.485Z,12.55
2023-07-17T07:40:21.833Z,14.80
2023-07-17T07:42:45.650Z,10.50
2023-07-17T07:45:09.737Z,10.35
2023-07-17T07:47:33.247Z,7.85
2023-07-17T07:49:57.968Z,12.07
2023-07-17T07:52:21.168Z,11.77
2023-07-17T07:54:45.896Z,10.13
2023-07-17T07:57:09.277Z,13.43
2023-07-17T07:59:32.501Z,9.63
2023-07-17T08:01:55.693Z,10.63
2023-07-17T08:04:19.102Z,10.77
2023-07-17T08:06:43.683Z,10.43
2023-07-17T08:09:06.848Z,10.18
2023-07-17T08:11:30.480Z,11.45
2023-07-17T08:13:54.686Z,9.73
2023-07-17T08:16:18.237Z,9.70
2023-07-17T08:18:41.634Z,8.82
2023-07-17T08:21:05.453Z,7.45
2023-07-17T08:23:30.671Z,11.82
2023-07-17T08:25:54.001Z,11.18
2023-07-17T08:28:17.302Z,7.50
2023-07-17T08:30:43.556Z,9.30
2023-07-17T08:33:06.800Z,8.98
2023-07-17T08:35:30.370Z,8.85
2023-07-17T08:37:53.618Z,15.60
2023-07-17T08:40:18.301Z,14.02
2023-07-17T08:42:46.776Z,9.50
2023-07-17T08:45:11.615Z,19.42
2023-07-17T08:47:35.339Z,9.90
2023-07-17T08:50:00.082Z,9.85
2023-07-17T08:52:23.372Z,8.35
2023-07-17T08:54:46.598Z,11.18
2023-07-17T08:57:12.699Z,8.43
2023-07-17T08:59:36.411Z,9.52
2023-07-17T09:01:59.974Z,8.35
2023-07-17T09:04:23.818Z,6.00
2023-07-17T09:06:47.032Z,9.40
2023-07-17T09:09:10.647Z,8.82
2023-07-17T09:11:33.942Z,8.98
2023-07-17T09:13:58.691Z,7.38
2023-07-17T09:16:24.357Z,4.78
2023-07-17T09:18:48.375Z,6.70
2023-07-17T09:21:15.091Z,8.95
2023-07-17T09:23:43.252Z,10.48
2023-07-17T09:26:06.484Z,9.25
2023-07-17T09:28:31.297Z,9.52
2023-07-17T09:31:03.676Z,5.30
2023-07-17T09:33:26.972Z,7.15
2023-07-17T09:35:57.483Z,10.48
2023-07-17T09:38:26.788Z,6.50
2023-07-17T09:40:50.088Z,8.10
2023-07-17T09:43:13.345Z,7.72
2023-07-17T09:45:37.090Z,4.60
2023-07-17T09:48:03.063Z,6.82
2023-07-17T09:50:28.116Z,10.65
2023-07-17T09:52:52.311Z,10.27
2023-07-17T09:55:16.189Z,6.38
2023-07-17T09:57:41.701Z,9.13
2023-07-17T10:00:12.621Z,5.82
2023-07-17T10:02:51.677Z,6.47
2023-07-17T10:05:16.365Z,8.80
2023-07-17T10:07:41.118Z,6.60
2023-07-17T10:12:31.403Z,7.72
2023-07-17T10:14:55.607Z,8.32
2023-07-17T10:17:32.447Z,6.82
2023-07-17T10:20:00.474Z,8.68
2023-07-17T10:22:33.638Z,6.97
2023-07-17T10:24:57.575Z,9.52
2023-07-17T10:27:40.839Z,7.15
2023-07-17T10:30:24.554Z,6.85
2023-07-17T10:32:47.810Z,8.30
2023-07-17T10:35:21.829Z,8.77
2023-07-17T10:37:46.388Z,8.13
2023-07-17T10:40:27.382Z,7.70
2023-07-17T10:42:50.733Z,7.82
2023-07-17T10:45:15.514Z,11.05
2023-07-17T10:47:38.851Z,6.88
2023-07-17T10:50:05.219Z,8.27
2023-07-17T10:52:34.503Z,8.98
2023-07-17T10:54:59.071Z,9.07
2023-07-17T10:57:23.379Z,7.03
2023-07-17T10:59:46.705Z,7.93
2023-07-17T11:02:09.973Z,6.15
2023-07-17T11:04:35.603Z,7.68
2023-07-17T11:07:09.484Z,6.47
2023-07-17T11:09:32.718Z,10.30
2023-07-17T11:11:58.476Z,6.65
2023-07-17T11:14:22.567Z,9.30
2023-07-17T11:16:47.843Z,9.70
2023-07-17T11:19:14.360Z,8.23
2023-07-17T11:21:37.547Z,7.43
2023-07-17T11:24:02.875Z,10.85
2023-07-17T11:26:27.962Z,8.77
2023-07-17T11:28:54.502Z,6.68
2023-07-17T11:31:26.819Z,8.85
2023-07-17T11:33:58.967Z,8.93
2023-07-17T11:36:22.202Z,6.22
2023-07-17T11:38:45.464Z,8.82
2023-07-17T11:41:08.730Z,7.18
2023-07-17T11:43:36.203Z,8.10
2023-07-17T11:46:04.096Z,6.53
2023-07-17T11:48:27.812Z,8.05
2023-07-17T11:50:51.119Z,8.98
2023-07-17T11:53:17.892Z,9.52
2023-07-17T11:55:42.941Z,7.03
2023-07-17T11:58:16.563Z,6.10
2023-07-17T12:00:43.326Z,8.43
2023-07-17T12:03:07.922Z,9.05
2023-07-17T12:05:31.107Z,8.25
2023-07-17T12:07:54.331Z,11.07
2023-07-17T12:10:17.618Z,9.02
2023-07-17T12:12:41.416Z,7.00
2023-07-17T12:15:05.378Z,8.63
2023-07-17T12:17:28.664Z,10.05
2023-07-17T12:19:55.545Z,9.48
2023-07-17T12:24:44.843Z,6.82
2023-07-17T12:27:08.546Z,8.70
2023-07-17T12:29:32.236Z,8.68
2023-07-17T12:31:55.485Z,8.07
2023-07-17T12:34:18.901Z,8.25
2023-07-17T12:36:43.504Z,7.18
2023-07-17T12:39:14.671Z,6.50
2023-07-17T12:41:37.912Z,6.97
2023-07-17T12:44:01.102Z,6.97
2023-07-17T12:46:24.553Z,6.88
2023-07-17T12:51:11.949Z,7.00
2023-07-17T12:53:36.529Z,8.57
2023-07-17T12:56:16.071Z,7.28
2023-07-17T12:58:42.855Z,8.23
2023-07-17T13:01:06.097Z,5.28
2023-07-17T13:03:29.383Z,8.57
2023-07-17T13:05:52.622Z,8.52
2023-07-17T13:08:15.781Z,6.22
2023-07-17T13:10:40.340Z,8.65
2023-07-17T13:13:03.556Z,10.20
2023-07-17T13:15:26.776Z,5.53
2023-07-17T13:17:50.066Z,6.45
2023-07-17T13:20:13.420Z,9.35
2023-07-17T13:22:36.750Z,7.60
2023-07-17T13:24:59.924Z,7.40
2023-07-17T13:27:24.487Z,8.38
2023-07-17T13:29:47.658Z,7.05
2023-07-17T13:32:12.268Z,6.50
2023-07-17T13:34:35.490Z,5.93
2023-07-17T13:36:58.853Z,6.35
2023-07-17T13:39:22.029Z,5.40
2023-07-17T13:41:47.605Z,4.80
2023-07-17T13:44:14.909Z,7.78
2023-07-17T13:46:38.539Z,8.55
2023-07-17T13:49:02.260Z,5.78
2023-07-17T13:51:25.816Z,6.38
2023-07-17T13:53:48.998Z,8.25
2023-07-17T13:57:02.592Z,6.35
2023-07-17T13:58:55.343Z,7.00
2023-07-17T14:01:20.536Z,4.88
2023-07-17T14:03:44.236Z,6.05
2023-07-17T14:06:07.584Z,4.70
2023-07-17T14:08:30.753Z,5.25
2023-07-17T14:10:54.321Z,5.82
2023-07-17T14:13:17.606Z,7.32
2023-07-17T14:15:40.763Z,6.18
2023-07-17T14:18:06.358Z,6.05
2023-07-17T14:20:29.648Z,6.43
2023-07-17T14:22:52.853Z,5.57
2023-07-17T14:25:16.103Z,5.72
2023-07-17T14:27:39.290Z,9.25
2023-07-17T14:30:02.542Z,4.82
2023-07-17T14:32:25.848Z,5.72
2023-07-17T14:34:50.514Z,10.20
2023-07-17T14:37:13.849Z,7.45
2023-07-17T14:39:37.085Z,7.35
2023-07-17T14:42:00.261Z,8.02
2023-07-17T14:44:23.505Z,5.55
2023-07-17T14:46:46.712Z,6.38
2023-07-17T14:49:09.935Z,4.53
2023-07-17T14:51:34.578Z,8.65
2023-07-17T14:53:57.784Z,5.35
2023-07-17T14:56:21.444Z,4.35
2023-07-17T14:58:44.885Z,5.30
2023-07-17T15:01:08.470Z,4.75
2023-07-17T15:03:31.802Z,4.38
2023-07-17T15:05:55.152Z,5.30
2023-07-17T15:08:19.741Z,3.70
2023-07-17T15:10:43.020Z,5.68
2023-07-17T15:13:06.238Z,5.93
2023-07-17T15:15:29.983Z,4.70
2023-07-17T15:17:53.254Z,3.60
2023-07-17T15:20:16.566Z,3.60
2023-07-17T15:22:43.865Z,4.32
2023-07-17T15:25:10.028Z,3.08
2023-07-17T15:27:33.219Z,4.50
2023-07-17T15:29:56.608Z,3.47
2023-07-17T15:32:19.871Z,7.30
2023-07-17T15:34:43.069Z,4.00
2023-07-17T15:37:07.190Z,4.65
2023-07-17T15:39:30.374Z,4.18
2023-07-17T15:41:54.974Z,4.65
2023-07-17T15:44:18.222Z,5.57
2023-07-17T15:46:41.524Z,4.32
2023-07-17T15:49:04.869Z,6.90
2023-07-17T15:51:28.071Z,6.38
2023-07-17T15:53:51.252Z,5.72
2023-07-17T15:56:14.548Z,4.32
2023-07-17T15:58:39.827Z,6.88
2023-07-17T16:01:04.529Z,4.28
2023-07-17T16:03:27.752Z,2.65
2023-07-17T16:05:50.939Z,3.88
2023-07-17T16:08:14.234Z,3.95
2023-07-17T16:10:37.903Z,3.97
2023-07-17T16:13:01.454Z,4.00
2023-07-17T16:15:26.374Z,3.47
2023-07-17T16:17:50.680Z,5.93
2023-07-17T16:20:14.132Z,3.63
2023-07-17T16:22:37.354Z,4.15
2023-07-17T16:25:00.522Z,4.38
2023-07-17T16:27:23.789Z,6.05
2023-07-17T16:29:47.111Z,4.50
2023-07-17T16:32:12.703Z,4.38
2023-07-17T16:34:35.944Z,4.10
2023-07-17T16:36:59.168Z,3.35
2023-07-17T16:39:22.353Z,4.10
2023-07-17T16:41:45.787Z,5.65
2023-07-17T16:44:09.320Z,3.90
2023-07-17T16:46:32.654Z,4.57
2023-07-17T16:48:57.271Z,4.57
2023-07-17T16:51:21.037Z,3.42
2023-07-17T16:53:45.797Z,2.90
2023-07-17T16:56:09.214Z,4.15
2023-07-17T16:58:32.389Z,4.07
2023-07-17T17:00:56.197Z,3.03
2023-07-17T17:03:20.466Z,4.15
2023-07-17T17:05:45.227Z,6.75
2023-07-17T17:08:09.047Z,4.47
2023-07-17T17:10:32.427Z,3.55
2023-07-17T17:12:55.587Z,4.45
2023-07-17T17:15:18.953Z,3.67
2023-07-17T17:17:42.501Z,3.05
2023-07-17T17:20:07.240Z,4.55
2023-07-17T17:22:32.126Z,3.13
2023-07-17T17:24:55.331Z,2.72
2023-07-17T17:27:18.557Z,2.95
2023-07-17T17:29:41.739Z,5.00
2023-07-17T17:32:05.664Z,3.00
2023-07-17T17:34:28.895Z,2.90
2023-07-17T17:36:52.200Z,2.20
2023-07-17T17:39:17.046Z,3.00
2023-07-17T17:41:40.245Z,6.20
2023-07-17T17:44:03.489Z,4.05
2023-07-17T17:46:26.775Z,3.75
2023-07-17T17:48:50.260Z,4.45
2023-07-17T17:51:13.446Z,6.28
2023-07-17T17:53:36.635Z,3.95
2023-07-17T17:56:01.386Z,3.58
2023-07-17T17:58:25.629Z,3.33
2023-07-17T18:00:49.168Z,4.45
2023-07-17T18:03:12.453Z,3.05
2023-07-17T18:05:35.838Z,4.85
2023-07-17T18:07:59.628Z,4.28
2023-07-17T18:10:22.946Z,4.85
2023-07-17T18:12:47.680Z,4.55
2023-07-17T18:15:11.615Z,4.15
2023-07-17T18:17:34.920Z,3.67
2023-07-17T18:19:58.098Z,3.25
2023-07-17T18:22:21.333Z,6.20
2023-07-17T18:24:44.540Z,6.50
2023-07-17T18:27:08.458Z,4.90
2023-07-17T18:29:33.865Z,3.63
2023-07-17T18:31:57.195Z,6.90
2023-07-17T18:34:20.441Z,4.90
2023-07-17T18:36:43.612Z,4.93
2023-07-17T18:39:07.397Z,4.80
2023-07-17T18:41:30.939Z,4.47
2023-07-17T18:43:54.597Z,4.97
2023-07-17T18:46:19.357Z,5.82
2023-07-17T18:48:42.508Z,5.60
2023-07-17T18:51:05.985Z,4.40
2023-07-17T18:53:29.155Z,5.88
2023-07-17T18:55:52.359Z,6.13
2023-07-17T18:58:15.537Z,5.45
2023-07-17T19:00:38.730Z,4.65
2023-07-17T19:03:04.035Z,5.07
2023-07-17T19:05:27.355Z,4.75
2023-07-17T19:07:50.584Z,4.00
2023-07-17T19:10:13.804Z,6.38
2023-07-17T19:12:37.456Z,5.03
2023-07-17T19:15:00.858Z,4.97
2023-07-17T19:17:25.269Z,8.25
2023-07-17T19:19:50.000Z,4.70
2023-07-17T19:22:13.299Z,4.45
2023-07-17T19:24:36.533Z,4.95
2023-07-17T19:27:01.966Z,3.75
2023-07-17T19:29:25.452Z,5.75
2023-07-17T19:31:48.708Z,5.30
2023-07-17T19:34:11.926Z,6.20
2023-07-17T19:36:37.045Z,4.80
2023-07-17T19:39:00.979Z,5.03
2023-07-17T19:41:24.727Z,5.13
2023-07-17T19:43:47.968Z,5.15
2023-07-17T19:46:12.829Z,5.13
2023-07-17T19:48:36.285Z,4.05
2023-07-17T19:50:59.518Z,4.90
2023-07-17T19:53:24.297Z,6.43
2023-07-17T19:55:47.454Z,6.72
2023-07-17T19:58:11.880Z,5.35
2023-07-17T20:00:35.348Z,4.07
2023-07-17T20:02:58.636Z,4.15
2023-07-17T20:05:22.271Z,6.43
2023-07-17T20:07:45.581Z,7.78
2023-07-17T20:10:11.370Z,5.05
2023-07-17T20:12:34.635Z,7.03
2023-07-17T20:14:59.934Z,6.00
2023-07-17T20:17:25.156Z,4.93
2023-07-17T20:19:48.712Z,8.13
2023-07-17T20:22:12.055Z,6.30
2023-07-17T20:24:35.641Z,5.65
2023-07-17T20:27:00.209Z,5.82
2023-07-17T20:29:25.001Z,8.00
2023-07-17T20:31:48.380Z,5.65
2023-07-17T20:34:11.597Z,5.65
2023-07-17T20:36:34.807Z,10.05
2023-07-17T20:38:58.085Z,4.97
2023-07-17T20:41:21.708Z,4.88
2023-07-17T20:43:46.311Z,4.68
2023-07-17T20:46:11.320Z,6.28
2023-07-17T20:48:34.513Z,5.78
2023-07-17T20:51:06.632Z,5.18
2023-07-17T20:53:30.053Z,7.28
2023-07-17T20:55:53.213Z,8.23
2023-07-17T20:58:16.394Z,6.68
2023-07-17T21:00:41.688Z,6.88
2023-07-17T21:03:05.479Z,5.28
2023-07-17T21:05:31.833Z,8.73
2023-07-17T21:07:55.456Z,8.50
2023-07-17T21:10:18.712Z,9.48
2023-07-17T21:12:41.991Z,9.63
2023-07-17T21:15:06.136Z,6.13
2023-07-17T21:17:30.887Z,7.35
2023-07-17T21:19:54.082Z,8.18
2023-07-17T21:22:17.929Z,6.53
2023-07-17T21:24:41.209Z,6.88
2023-07-17T21:27:04.533Z,6.53
2023-07-17T21:29:27.826Z,5.55
2023-07-17T21:31:50.994Z,6.43
2023-07-17T21:34:16.029Z,6.40
2023-07-17T21:36:39.243Z,9.00
2023-07-17T21:39:02.558Z,6.78
2023-07-17T21:41:28.767Z,6.55
2023-07-17T21:43:52.022Z,8.18
2023-07-17T21:46:15.341Z,6.72
2023-07-17T21:48:38.579Z,6.85
2023-07-17T21:51:03.243Z,7.82
2023-07-17T21:53:26.481Z,6.13
2023-07-17T21:55:50.318Z,7.50
2023-07-17T21:58:13.473Z,7.20
2023-07-17T22:00:37.084Z,5.78
2023-07-17T22:03:00.432Z,7.82
2023-07-17T22:05:23.659Z,10.07
2023-07-17T22:07:48.858Z,6.75
2023-07-17T22:10:13.223Z,7.35
2023-07-17T22:12:36.519Z,6.82
2023-07-17T22:14:59.723Z,7.85
2023-07-17T22:17:24.296Z,6.95
2023-07-17T22:19:47.738Z,5.55
2023-07-17T22:22:10.973Z,7.35
2023-07-17T22:24:35.516Z,6.95
2023-07-17T22:26:58.737Z,5.75
2023-07-17T22:29:22.873Z,8.63
2023-07-17T22:31:46.162Z,6.93
2023-07-17T22:34:09.334Z,7.00
2023-07-17T22:36:32.559Z,8.13
2023-07-17T22:38:55.743Z,8.00
2023-07-17T22:41:20.407Z,7.25
2023-07-17T22:43:43.805Z,6.30
2023-07-17T22:46:07.288Z,7.60
2023-07-17T22:48:31.195Z,7.53
2023-07-17T22:50:54.358Z,6.85
2023-07-17T22:53:17.605Z,7.00
2023-07-17T22:55:44.165Z,7.65
2023-07-17T22:58:08.867Z,4.97
2023-07-17T23:00:32.215Z,6.38
2023-07-17T23:02:56.885Z,7.65
2023-07-17T23:05:20.149Z,8.77
2023-07-17T23:07:43.366Z,6.72
2023-07-17T23:10:11.414Z,6.07
2023-07-17T23:12:39.667Z,7.75
2023-07-17T23:15:04.389Z,7.65
2023-07-17T23:17:27.722Z,5.57
2023-07-17T23:19:52.405Z,10.25
2023-07-17T23:22:17.176Z,8.15
2023-07-17T23:24:40.379Z,6.20
2023-07-17T23:27:03.662Z,7.38
2023-07-17T23:29:26.977Z,6.80
2023-07-17T23:31:51.645Z,11.20
2023-07-17T23:34:15.575Z,7.97
2023-07-17T23:36:38.808Z,8.15
2023-07-17T23:39:04.113Z,7.90
2023-07-17T23:41:27.752Z,7.65
2023-07-17T23:43:50.941Z,8.77
2023-07-17T23:46:15.018Z,8.10
2023-07-17T23:48:39.680Z,6.35
2023-07-17T23:51:03.025Z,6.88
2023-07-17T23:53:27.458Z,5.00
2023-07-17T23:55:51.714Z,6.88
2023-07-17T23:58:15.993Z,4.85
